createdAt,value
2022-10-12T00:00:14.715Z,12.97
2022-10-12T00:02:42.520Z,12.92
2022-10-12T00:05:10.512Z,12.86
2022-10-12T00:07:38.016Z,12.88
2022-10-12T00:10:05.935Z,12.91
2022-10-12T00:12:35.101Z,12.93
2022-10-12T00:15:02.446Z,12.89
2022-10-12T00:17:29.857Z,12.88
2022-10-12T00:19:57.061Z,12.91
2022-10-12T00:22:24.432Z,12.91
2022-10-12T00:24:53.587Z,12.89
2022-10-12T00:27:21.141Z,12.88
2022-10-12T00:29:48.338Z,12.84
2022-10-12T00:32:15.865Z,12.81
2022-10-12T00:34:43.029Z,12.78
2022-10-12T00:37:13.462Z,12.78
2022-10-12T00:39:40.600Z,12.74
2022-10-12T00:42:07.997Z,12.71
2022-10-12T00:44:37.943Z,12.70
2022-10-12T00:47:30.782Z,12.69
2022-10-12T00:50:18.652Z,12.72
2022-10-12T00:53:01.943Z,12.74
2022-10-12T00:55:33.452Z,12.69
2022-10-12T00:58:01.986Z,12.63
2022-10-12T01:00:29.390Z,12.65
2022-10-12T01:02:57.421Z,12.67
2022-10-12T01:05:25.134Z,12.69
2022-10-12T01:07:52.325Z,12.60
2022-10-12T01:10:19.391Z,12.59
2022-10-12T01:12:48.906Z,12.59
2022-10-12T01:15:16.624Z,12.63
2022-10-12T01:18:10.436Z,12.61
2022-10-12T01:20:46.711Z,12.59
2022-10-12T01:23:36.329Z,12.55
2022-10-12T01:26:39.593Z,12.54
2022-10-12T01:29:25.651Z,12.53
2022-10-12T01:32:07.118Z,12.55
2022-10-12T01:34:41.220Z,12.60
2022-10-12T01:37:15.846Z,12.54
2022-10-12T01:39:50.446Z,12.53
2022-10-12T01:42:23.733Z,12.48
2022-10-12T01:44:50.925Z,12.45
2022-10-12T01:47:17.954Z,12.45
2022-10-12T01:49:45.309Z,12.46
2022-10-12T01:52:12.207Z,12.45
2022-10-12T01:54:54.235Z,12.44
2022-10-12T01:57:27.182Z,12.40
2022-10-12T01:59:56.991Z,12.38
2022-10-12T02:02:42.029Z,12.41
2022-10-12T02:05:17.758Z,12.45
2022-10-12T02:07:52.271Z,12.42
2022-10-12T02:10:28.280Z,12.40
2022-10-12T02:12:59.134Z,12.38
2022-10-12T02:15:27.880Z,12.37
2022-10-12T02:17:56.214Z,12.42
2022-10-12T02:20:25.342Z,12.43
2022-10-12T02:22:52.891Z,12.41
2022-10-12T02:25:24.166Z,12.43
2022-10-12T02:28:05.979Z,12.38
2022-10-12T02:30:50.750Z,12.33
2022-10-12T02:34:08.849Z,12.33
2022-10-12T02:36:46.286Z,12.29
2022-10-12T02:39:18.215Z,12.34
2022-10-12T02:41:50.797Z,12.30
2022-10-12T02:44:26.317Z,12.33
2022-10-12T02:46:55.569Z,12.35
2022-10-12T02:49:27.167Z,12.33
2022-10-12T02:51:56.169Z,12.32
2022-10-12T02:54:23.408Z,12.28
2022-10-12T02:56:50.851Z,12.25
2022-10-12T02:59:20.183Z,12.25
2022-10-12T03:01:47.474Z,12.24
2022-10-12T03:04:14.710Z,12.28
2022-10-12T03:06:42.907Z,12.28
2022-10-12T03:09:13.610Z,12.26
2022-10-12T03:11:44.360Z,12.30
2022-10-12T03:14:17.773Z,12.33
2022-10-12T03:16:47.098Z,12.25
2022-10-12T03:19:14.505Z,12.22
2022-10-12T03:21:42.263Z,12.23
2022-10-12T03:24:09.529Z,12.26
2022-10-12T03:26:37.890Z,12.23
2022-10-12T03:29:06.475Z,12.28
2022-10-12T03:31:34.152Z,12.25
2022-10-12T03:34:01.747Z,12.23
2022-10-12T03:36:29.099Z,12.25
2022-10-12T03:38:56.331Z,12.23
2022-10-12T03:41:23.654Z,12.24
2022-10-12T03:43:50.999Z,12.21
2022-10-12T03:46:18.469Z,12.19
2022-10-12T03:48:45.927Z,12.18
2022-10-12T03:51:13.628Z,12.20
2022-10-12T03:53:45.224Z,12.23
2022-10-12T03:56:13.269Z,12.23
2022-10-12T03:58:40.477Z,12.16
2022-10-12T04:01:07.968Z,12.16
2022-10-12T04:03:35.570Z,12.15
2022-10-12T04:06:03.255Z,12.17
2022-10-12T04:08:30.998Z,12.21
2022-10-12T04:10:58.848Z,12.21
2022-10-12T04:13:25.888Z,12.18
2022-10-12T04:15:53.554Z,12.18
2022-10-12T04:18:21.023Z,12.19
2022-10-12T04:20:49.516Z,12.18
2022-10-12T04:23:17.155Z,12.15
2022-10-12T04:25:45.539Z,12.20
2022-10-12T04:28:13.576Z,12.25
2022-10-12T04:30:40.814Z,12.19
2022-10-12T04:33:09.018Z,12.18
2022-10-12T04:35:36.462Z,12.13
2022-10-12T04:38:04.402Z,12.13
2022-10-12T04:40:31.601Z,12.13
2022-10-12T04:42:58.694Z,12.13
2022-10-12T04:45:25.989Z,12.10
2022-10-12T04:47:53.060Z,12.10
2022-10-12T04:50:20.435Z,12.09
2022-10-12T04:52:47.548Z,12.13
2022-10-12T04:55:15.123Z,12.17
2022-10-12T04:57:42.622Z,12.20
2022-10-12T05:00:10.748Z,12.19
2022-10-12T05:02:38.276Z,12.21
2022-10-12T05:05:05.653Z,12.27
2022-10-12T05:07:32.984Z,12.28
2022-10-12T05:10:00.083Z,12.29
2022-10-12T05:12:27.896Z,12.30
2022-10-12T05:14:55.572Z,12.39
2022-10-12T05:17:23.057Z,12.41
2022-10-12T05:19:50.403Z,12.41
2022-10-12T05:22:19.160Z,12.46
2022-10-12T05:24:49.009Z,12.50
2022-10-12T05:27:21.456Z,12.57
2022-10-12T05:29:48.561Z,12.60
2022-10-12T05:32:15.914Z,12.65
2022-10-12T05:34:44.811Z,12.69
2022-10-12T05:37:12.034Z,12.75
2022-10-12T05:39:39.195Z,12.76
2022-10-12T05:42:06.892Z,12.84
2022-10-12T05:44:34.247Z,12.88
2022-10-12T05:47:01.612Z,12.98
2022-10-12T05:49:29.276Z,13.00
2022-10-12T05:51:56.633Z,13.01
2022-10-12T05:54:24.801Z,13.04
2022-10-12T05:56:52.524Z,13.10
2022-10-12T05:59:19.697Z,13.13
2022-10-12T06:01:47.641Z,13.16
2022-10-12T06:04:14.777Z,13.25
2022-10-12T06:06:41.982Z,13.30
2022-10-12T06:09:09.801Z,13.30
2022-10-12T06:11:37.422Z,13.38
2022-10-12T06:14:05.727Z,13.39
2022-10-12T06:16:33.979Z,13.44
2022-10-12T06:19:01.921Z,13.49
2022-10-12T06:21:33.466Z,13.52
2022-10-12T06:24:01.818Z,13.56
2022-10-12T06:26:29.734Z,13.61
2022-10-12T06:28:56.912Z,13.67
2022-10-12T06:31:24.474Z,13.69
2022-10-12T06:33:52.819Z,13.71
2022-10-12T06:36:21.126Z,13.79
2022-10-12T06:38:48.941Z,13.86
2022-10-12T06:41:16.350Z,13.98
2022-10-12T06:43:43.936Z,13.98
2022-10-12T06:46:12.432Z,13.98
2022-10-12T06:48:39.898Z,13.98
2022-10-12T06:51:07.517Z,14.04
2022-10-12T06:53:35.741Z,14.12
2022-10-12T06:56:10.343Z,14.20
2022-10-12T06:58:38.297Z,14.29
2022-10-12T07:01:07.826Z,14.39
2022-10-12T07:03:35.374Z,14.45
2022-10-12T07:06:13.222Z,14.51
2022-10-12T07:08:41.704Z,14.62
2022-10-12T07:11:11.982Z,14.71
2022-10-12T07:13:39.539Z,14.73
2022-10-12T07:16:07.472Z,14.75
2022-10-12T07:18:34.729Z,14.86
2022-10-12T07:21:03.241Z,14.91
2022-10-12T07:23:34.245Z,15.00
2022-10-12T07:26:01.855Z,15.13
2022-10-12T07:28:29.881Z,15.19
2022-10-12T07:31:02.881Z,15.24
2022-10-12T07:33:35.144Z,15.24
2022-10-12T07:36:13.901Z,15.27
2022-10-12T07:38:47.536Z,15.34
2022-10-12T07:41:15.676Z,15.46
2022-10-12T07:43:43.579Z,15.52
2022-10-12T07:46:11.465Z,15.62
2022-10-12T07:48:43.434Z,15.75
2022-10-12T07:51:15.233Z,15.83
2022-10-12T07:53:42.963Z,15.83
2022-10-12T07:56:15.523Z,15.86
2022-10-12T07:58:47.971Z,15.98
2022-10-12T08:01:16.205Z,16.12
2022-10-12T08:03:43.771Z,16.13
2022-10-12T08:06:16.155Z,16.13
2022-10-12T08:08:44.788Z,16.20
2022-10-12T08:11:12.875Z,16.37
2022-10-12T08:13:41.486Z,16.38
2022-10-12T08:16:19.126Z,16.45
2022-10-12T08:18:49.693Z,16.53
2022-10-12T08:21:17.919Z,16.64
2022-10-12T08:23:46.377Z,16.64
2022-10-12T08:26:15.263Z,16.72
2022-10-12T08:28:42.779Z,16.79
2022-10-12T08:31:13.776Z,16.81
2022-10-12T08:33:41.478Z,16.88
2022-10-12T08:36:09.841Z,17.04
2022-10-12T08:38:41.137Z,17.05
2022-10-12T08:41:34.366Z,17.22
2022-10-12T08:44:23.068Z,17.29
2022-10-12T08:46:56.088Z,17.34
2022-10-12T08:49:27.174Z,17.45
2022-10-12T08:51:57.358Z,17.58
2022-10-12T08:54:29.376Z,17.77
2022-10-12T08:56:57.685Z,17.86
2022-10-12T08:59:27.068Z,18.10
2022-10-12T09:02:09.633Z,18.20
2022-10-12T09:04:50.254Z,18.41
2022-10-12T09:07:58.934Z,18.48
2022-10-12T09:10:36.069Z,18.46
2022-10-12T09:13:57.121Z,18.49
2022-10-12T09:16:28.306Z,18.52
2022-10-12T09:19:03.443Z,18.55
2022-10-12T09:21:33.277Z,18.86
2022-10-12T09:24:04.895Z,19.18
2022-10-12T09:26:41.063Z,19.31
2022-10-12T09:29:19.704Z,19.37
2022-10-12T09:32:10.856Z,19.42
2022-10-12T09:34:38.546Z,19.55
2022-10-12T09:37:07.128Z,19.67
2022-10-12T09:39:41.452Z,19.80
2022-10-12T09:42:11.285Z,19.88
2022-10-12T09:44:44.291Z,19.94
2022-10-12T09:47:27.983Z,20.05
2022-10-12T09:49:59.034Z,20.25
2022-10-12T09:52:28.788Z,20.25
2022-10-12T09:55:05.406Z,20.24
2022-10-12T09:57:40.407Z,20.33
2022-10-12T10:00:25.376Z,20.35
2022-10-12T10:02:53.269Z,20.27
2022-10-12T10:05:30.771Z,20.14
2022-10-12T10:08:21.443Z,20.16
2022-10-12T10:10:51.365Z,20.18
2022-10-12T10:13:19.825Z,20.21
2022-10-12T10:16:02.098Z,20.28
2022-10-12T10:18:54.366Z,20.38
2022-10-12T10:21:37.032Z,20.38
2022-10-12T10:24:06.666Z,20.50
2022-10-12T10:26:54.464Z,20.63
2022-10-12T10:29:35.931Z,20.62
2022-10-12T10:32:24.699Z,20.53
2022-10-12T10:35:20.843Z,20.56
2022-10-12T10:37:56.913Z,20.64
2022-10-12T10:40:29.824Z,20.66
2022-10-12T10:42:59.446Z,20.62
2022-10-12T10:45:48.283Z,20.65
2022-10-12T10:48:19.001Z,20.54
2022-10-12T10:51:11.685Z,20.47
2022-10-12T10:53:49.684Z,20.29
2022-10-12T10:56:32.126Z,20.36
2022-10-12T10:59:16.978Z,20.33
2022-10-12T11:01:55.626Z,20.42
2022-10-12T11:04:32.858Z,20.49
2022-10-12T11:07:25.964Z,20.47
2022-10-12T11:09:58.016Z,20.22
2022-10-12T11:12:33.599Z,20.12
2022-10-12T11:15:16.002Z,20.08
2022-10-12T11:17:49.176Z,20.16
2022-10-12T11:20:42.355Z,20.26
2022-10-12T11:23:27.918Z,20.31
2022-10-12T11:26:04.184Z,20.38
2022-10-12T11:28:33.988Z,20.45
2022-10-12T11:31:03.582Z,20.52
2022-10-12T11:33:44.504Z,20.54
2022-10-12T11:36:21.591Z,20.46
2022-10-12T11:38:53.464Z,20.39
2022-10-12T11:41:52.529Z,20.37
2022-10-12T11:44:15.612Z,20.45
2022-10-12T11:47:01.428Z,20.39
2022-10-12T11:50:10.843Z,20.44
2022-10-12T11:52:45.267Z,20.45
2022-10-12T11:55:35.060Z,20.53
2022-10-12T11:58:13.449Z,20.51
2022-10-12T12:01:17.031Z,20.51
2022-10-12T12:03:44.431Z,20.56
2022-10-12T12:06:30.270Z,20.59
2022-10-12T12:09:03.692Z,20.55
2022-10-12T12:11:34.452Z,20.50
2022-10-12T12:14:47.017Z,20.41
2022-10-12T12:17:14.146Z,20.40
2022-10-12T12:19:43.683Z,20.40
2022-10-12T12:22:30.818Z,20.40
2022-10-12T12:25:13.177Z,20.46
2022-10-12T12:27:59.179Z,20.36
2022-10-12T12:31:07.375Z,20.41
2022-10-12T12:33:42.543Z,20.47
2022-10-12T12:36:14.022Z,20.40
2022-10-12T12:38:49.906Z,20.28
2022-10-12T12:41:41.633Z,20.30
2022-10-12T12:44:38.478Z,20.20
2022-10-12T12:47:32.662Z,20.22
2022-10-12T12:50:00.866Z,20.12
2022-10-12T12:52:38.703Z,20.13
2022-10-12T12:55:15.748Z,20.08
2022-10-12T12:58:25.226Z,20.04
2022-10-12T13:01:22.818Z,20.05
2022-10-12T13:04:08.841Z,20.05
2022-10-12T13:07:20.484Z,19.97
2022-10-12T13:10:08.901Z,19.89
2022-10-12T13:13:01.466Z,19.78
2022-10-12T13:15:31.872Z,19.75
2022-10-12T13:18:46.996Z,19.68
2022-10-12T13:21:24.270Z,19.66
2022-10-12T13:23:58.629Z,19.58
2022-10-12T13:26:29.387Z,19.64
2022-10-12T13:28:59.462Z,19.66
2022-10-12T13:31:37.648Z,19.56
2022-10-12T13:34:18.203Z,19.50
2022-10-12T13:37:05.935Z,19.50
2022-10-12T13:39:42.783Z,19.39
2022-10-12T13:42:14.792Z,19.34
2022-10-12T13:44:47.527Z,19.33
2022-10-12T13:47:30.610Z,19.28
2022-10-12T13:49:58.933Z,19.27
2022-10-12T13:52:32.590Z,19.26
2022-10-12T13:55:01.416Z,19.13
2022-10-12T13:57:43.441Z,19.09
2022-10-12T14:00:16.966Z,19.02
2022-10-12T14:03:02.416Z,18.91
2022-10-12T14:05:32.303Z,18.74
2022-10-12T14:08:11.720Z,18.67
2022-10-12T14:10:42.862Z,18.63
2022-10-12T14:13:16.908Z,18.56
2022-10-12T14:15:44.167Z,18.46
2022-10-12T14:18:38.990Z,18.41
2022-10-12T14:21:31.144Z,18.27
2022-10-12T14:24:10.113Z,18.28
2022-10-12T14:26:43.101Z,18.21
2022-10-12T14:29:31.056Z,18.17
2022-10-12T14:32:19.226Z,18.15
2022-10-12T14:34:49.491Z,18.11
2022-10-12T14:37:16.662Z,18.00
2022-10-12T14:39:46.037Z,17.96
2022-10-12T14:42:36.956Z,17.91
2022-10-12T14:45:07.044Z,17.82
2022-10-12T14:47:39.187Z,17.79
2022-10-12T14:50:10.846Z,17.73
2022-10-12T14:52:45.365Z,17.65
2022-10-12T14:55:18.877Z,17.54
2022-10-12T14:57:46.415Z,17.49
2022-10-12T15:00:22.289Z,17.40
2022-10-12T15:02:50.447Z,17.27
2022-10-12T15:05:21.673Z,17.22
2022-10-12T15:07:49.820Z,17.15
2022-10-12T15:10:18.883Z,17.06
2022-10-12T15:12:46.304Z,17.04
2022-10-12T15:15:47.254Z,16.92
2022-10-12T15:18:14.644Z,16.86
2022-10-12T15:20:46.740Z,16.79
2022-10-12T15:23:17.497Z,16.71
2022-10-12T15:25:50.649Z,16.62
2022-10-12T15:28:18.580Z,16.51
2022-10-12T15:31:12.220Z,16.44
2022-10-12T15:33:34.137Z,16.36
2022-10-12T15:36:04.814Z,16.30
2022-10-12T15:38:32.385Z,16.25
2022-10-12T15:40:59.947Z,16.20
2022-10-12T15:43:27.478Z,16.12
2022-10-12T15:45:56.963Z,16.07
2022-10-12T15:48:24.343Z,16.00
2022-10-12T15:50:52.079Z,16.00
2022-10-12T15:53:23.880Z,15.91
2022-10-12T15:55:52.634Z,15.81
2022-10-12T15:58:20.046Z,15.77
2022-10-12T16:00:47.646Z,15.66
2022-10-12T16:03:25.715Z,15.59
2022-10-12T16:05:53.754Z,15.55
2022-10-12T16:08:21.170Z,15.50
2022-10-12T16:10:50.659Z,15.44
2022-10-12T16:13:18.650Z,15.35
2022-10-12T16:15:46.191Z,15.29
2022-10-12T16:18:15.749Z,15.25
2022-10-12T16:20:43.544Z,15.20
2022-10-12T16:23:15.501Z,15.18
2022-10-12T16:25:46.902Z,15.07
2022-10-12T16:28:14.043Z,15.05
2022-10-12T16:30:42.367Z,15.01
2022-10-12T16:33:10.085Z,14.94
2022-10-12T16:35:40.860Z,14.90
2022-10-12T16:38:09.657Z,14.86
2022-10-12T16:40:42.641Z,14.80
2022-10-12T16:43:11.553Z,14.75
2022-10-12T16:45:38.970Z,14.75
2022-10-12T16:48:06.399Z,14.73
2022-10-12T16:50:33.581Z,14.67
2022-10-12T16:53:00.864Z,14.62
2022-10-12T16:55:28.124Z,14.54
2022-10-12T16:57:55.357Z,14.51
2022-10-12T17:00:22.539Z,14.42
2022-10-12T17:02:52.006Z,14.40
2022-10-12T17:05:21.942Z,14.33
2022-10-12T17:07:49.301Z,14.34
2022-10-12T17:10:16.588Z,14.28
2022-10-12T17:12:43.753Z,14.26
2022-10-12T17:15:11.128Z,14.25
2022-10-12T17:17:38.424Z,14.21
2022-10-12T17:20:05.924Z,14.22
2022-10-12T17:22:33.395Z,14.18
2022-10-12T17:25:00.737Z,14.12
2022-10-12T17:27:32.078Z,14.06
2022-10-12T17:29:59.894Z,13.98
2022-10-12T17:32:27.806Z,13.92
2022-10-12T17:34:55.038Z,13.87
2022-10-12T17:37:22.369Z,13.86
2022-10-12T17:39:50.528Z,13.93
2022-10-12T17:42:18.187Z,13.95
2022-10-12T17:44:45.607Z,13.88
2022-10-12T17:47:12.786Z,13.87
2022-10-12T17:49:42.789Z,13.86
2022-10-12T17:52:09.843Z,13.82
2022-10-12T17:54:37.261Z,13.78
2022-10-12T17:57:07.211Z,13.77
2022-10-12T17:59:34.226Z,13.74
2022-10-12T18:02:01.458Z,13.72
2022-10-12T18:04:28.748Z,13.67
2022-10-12T18:06:56.145Z,13.66
2022-10-12T18:09:24.119Z,13.68
2022-10-12T18:11:51.270Z,13.59
2022-10-12T18:15:31.306Z,13.56
2022-10-12T18:43:11.391Z,13.13
2022-10-12T18:45:45.852Z,13.11
2022-10-12T18:48:20.231Z,13.06
2022-10-12T18:50:50.288Z,13.08
2022-10-12T18:53:17.519Z,13.05
2022-10-12T18:55:45.557Z,13.03
2022-10-12T18:58:13.848Z,13.03
2022-10-12T19:00:41.898Z,13.03
2022-10-12T19:03:11.525Z,13.01
2022-10-12T19:05:39.303Z,13.00
2022-10-12T19:08:22.052Z,13.01
2022-10-12T19:10:53.248Z,12.96
2022-10-12T19:14:01.398Z,12.91
2022-10-12T19:16:32.626Z,12.88
2022-10-12T19:19:09.552Z,12.86
2022-10-12T19:21:37.783Z,12.83
2022-10-12T19:24:07.665Z,12.76
2022-10-12T19:26:35.936Z,12.78
2022-10-12T19:29:13.751Z,12.75
2022-10-12T19:31:44.554Z,12.74
2022-10-12T19:34:15.315Z,12.70
2022-10-12T19:36:44.867Z,12.66
2022-10-12T19:39:19.632Z,12.63
2022-10-12T19:42:02.218Z,12.60
2022-10-12T19:44:41.397Z,12.55
2022-10-12T19:51:23.821Z,12.36
2022-10-12T20:05:04.516Z,12.16
2022-10-12T20:07:31.879Z,12.16
2022-10-12T20:09:59.540Z,12.10
2022-10-12T20:12:29.192Z,12.12
2022-10-12T20:14:57.041Z,12.11
2022-10-12T20:17:24.155Z,12.07
2022-10-12T20:19:51.849Z,12.06
2022-10-12T20:22:19.430Z,12.05
2022-10-12T20:24:46.839Z,12.07
2022-10-12T20:27:14.223Z,12.01
2022-10-12T20:29:41.704Z,11.95
2022-10-12T20:32:08.992Z,11.96
2022-10-12T20:34:36.097Z,11.91
2022-10-12T20:37:03.110Z,11.89
2022-10-12T20:39:30.180Z,11.90
2022-10-12T20:41:57.319Z,11.87
2022-10-12T20:44:27.501Z,11.91
2022-10-12T20:46:54.648Z,11.90
2022-10-12T20:49:21.980Z,11.89
2022-10-12T20:51:49.193Z,11.84
2022-10-12T20:54:20.128Z,11.77
2022-10-12T20:56:49.759Z,11.75
2022-10-12T20:59:16.766Z,11.72
2022-10-12T21:01:44.572Z,11.73
2022-10-12T21:04:11.736Z,11.70
2022-10-12T21:06:39.406Z,11.70
2022-10-12T21:09:06.724Z,11.69
2022-10-12T21:11:33.732Z,11.64
2022-10-12T21:14:01.077Z,11.66
2022-10-12T21:16:28.186Z,11.66
2022-10-12T21:18:58.395Z,11.65
2022-10-12T21:21:25.948Z,11.59
2022-10-12T21:23:58.687Z,11.61
2022-10-12T21:26:29.849Z,11.54
2022-10-12T21:28:58.114Z,11.53
2022-10-12T21:31:29.522Z,11.49
2022-10-12T21:34:00.362Z,11.48
2022-10-12T21:36:28.520Z,11.50
2022-10-12T21:38:56.629Z,11.40
2022-10-12T21:41:26.275Z,11.45
2022-10-12T21:43:54.180Z,11.32
2022-10-12T21:46:28.587Z,11.28
2022-10-12T21:48:57.381Z,11.30
2022-10-12T21:51:28.917Z,11.24
2022-10-12T21:53:57.122Z,11.20
2022-10-12T21:56:27.058Z,11.19
2022-10-12T21:58:58.407Z,11.18
2022-10-12T22:01:32.275Z,11.10
2022-10-12T22:04:01.350Z,11.08
2022-10-12T22:06:30.153Z,11.05
2022-10-12T22:09:00.210Z,11.05
2022-10-12T22:11:29.475Z,11.07
2022-10-12T22:14:03.347Z,11.03
2022-10-12T22:16:31.221Z,11.04
2022-10-12T22:19:00.525Z,11.04
2022-10-12T22:21:28.454Z,11.00
2022-10-12T22:23:55.964Z,11.06
2022-10-12T22:26:27.876Z,11.02
2022-10-12T22:28:55.475Z,10.96
2022-10-12T22:31:27.414Z,10.96
2022-10-12T22:33:57.098Z,10.98
2022-10-12T22:36:24.832Z,10.93
2022-10-12T22:38:51.985Z,10.93
2022-10-12T22:41:23.759Z,10.97
2022-10-12T22:43:56.471Z,10.98
2022-10-12T22:46:25.741Z,10.97
2022-10-12T22:48:54.382Z,10.98
2022-10-12T22:51:33.277Z,10.91
2022-10-12T22:54:02.154Z,10.89
2022-10-12T22:56:30.049Z,10.89
2022-10-12T22:58:58.198Z,10.89
2022-10-12T23:01:26.723Z,10.83
2022-10-12T23:03:55.162Z,10.84
2022-10-12T23:06:23.702Z,10.79
2022-10-12T23:08:51.738Z,10.77
2022-10-12T23:11:22.578Z,10.66
2022-10-12T23:13:50.917Z,10.64
2022-10-12T23:16:26.468Z,10.52
2022-10-12T23:18:59.239Z,10.46
2022-10-12T23:21:28.185Z,10.40
2022-10-12T23:23:55.505Z,10.32
2022-10-12T23:26:24.808Z,10.38
2022-10-12T23:28:53.059Z,10.33
2022-10-12T23:31:26.633Z,10.34
2022-10-12T23:33:58.402Z,10.29
2022-10-12T23:36:26.294Z,10.21
2022-10-12T23:38:53.536Z,10.23
2022-10-12T23:41:20.731Z,10.17
2022-10-12T23:43:48.196Z,10.11
2022-10-12T23:46:15.187Z,10.05
2022-10-12T23:48:42.785Z,10.01
2022-10-12T23:51:10.613Z,10.00
2022-10-12T23:53:38.515Z,9.99
2022-10-12T23:56:07.258Z,9.95
2022-10-12T23:58:35.424Z,9.86
